sensor_id;sensor_type;location;lat;lon;timestamp;pressure;altitude;pressure_sealevel;temperature
20103;BMP180;10210;52.284;9.892;2023-11-19T00:00:36;99862.00;;;10.40
20103;BMP180;10210;52.284;9.892;2023-11-19T00:03:02;99882.00;;;10.40
20103;BMP180;10210;52.284;9.892;2023-11-19T00:05:27;99871.00;;;10.40
20103;BMP180;10210;52.284;9.892;2023-11-19T00:07:53;99864.00;;;10.50
20103;BMP180;10210;52.284;9.892;2023-11-19T00:10:20;99853.00;;;10.50
20103;BMP180;10210;52.284;9.892;2023-11-19T00:12:49;99844.00;;;10.50
20103;BMP180;10210;52.284;9.892;2023-11-19T00:15:17;99841.00;;;10.60
20103;BMP180;10210;52.284;9.892;2023-11-19T00:17:46;99844.00;;;10.60
20103;BMP180;10210;52.284;9.892;2023-11-19T00:20:17;99826.00;;;10.60
20103;BMP180;10210;52.284;9.892;2023-11-19T00:22:43;99828.00;;;10.70
20103;BMP180;10210;52.284;9.892;2023-11-19T00:25:10;99818.00;;;10.70
20103;BMP180;10210;52.284;9.892;2023-11-19T00:27:36;99797.00;;;10.70
20103;BMP180;10210;52.284;9.892;2023-11-19T00:30:05;99798.00;;;10.70
20103;BMP180;10210;52.284;9.892;2023-11-19T00:32:34;99796.00;;;10.70
20103;BMP180;10210;52.284;9.892;2023-11-19T00:35:00;99785.00;;;10.70
20103;BMP180;10210;52.284;9.892;2023-11-19T00:37:26;99774.00;;;10.70
20103;BMP180;10210;52.284;9.892;2023-11-19T00:39:52;99774.00;;;10.70
20103;BMP180;10210;52.284;9.892;2023-11-19T00:42:18;99776.00;;;10.70
20103;BMP180;10210;52.284;9.892;2023-11-19T00:44:43;99780.00;;;10.70
20103;BMP180;10210;52.284;9.892;2023-11-19T00:47:09;99761.00;;;10.70
20103;BMP180;10210;52.284;9.892;2023-11-19T00:49:35;99761.00;;;10.70
20103;BMP180;10210;52.284;9.892;2023-11-19T00:52:01;99776.00;;;10.70
20103;BMP180;10210;52.284;9.892;2023-11-19T00:54:27;99778.00;;;10.70
20103;BMP180;10210;52.284;9.892;2023-11-19T00:56:53;99749.00;;;10.80
20103;BMP180;10210;52.284;9.892;2023-11-19T00:59:19;99747.00;;;10.80
20103;BMP180;10210;52.284;9.892;2023-11-19T01:01:45;99751.00;;;10.80
20103;BMP180;10210;52.284;9.892;2023-11-19T01:04:14;99751.00;;;10.80
20103;BMP180;10210;52.284;9.892;2023-11-19T01:06:40;99746.00;;;10.80
20103;BMP180;10210;52.284;9.892;2023-11-19T01:09:08;99740.00;;;10.90
20103;BMP180;10210;52.284;9.892;2023-11-19T01:11:34;99744.00;;;10.90
20103;BMP180;10210;52.284;9.892;2023-11-19T01:14:01;99742.00;;;10.90
20103;BMP180;10210;52.284;9.892;2023-11-19T01:16:27;99731.00;;;10.90
20103;BMP180;10210;52.284;9.892;2023-11-19T01:18:53;99715.00;;;10.90
20103;BMP180;10210;52.284;9.892;2023-11-19T01:21:19;99722.00;;;11.00
20103;BMP180;10210;52.284;9.892;2023-11-19T01:23:44;99705.00;;;11.00
20103;BMP180;10210;52.284;9.892;2023-11-19T01:26:12;99711.00;;;11.00
20103;BMP180;10210;52.284;9.892;2023-11-19T01:28:41;99712.00;;;11.00
20103;BMP180;10210;52.284;9.892;2023-11-19T01:31:11;99697.00;;;11.00
20103;BMP180;10210;52.284;9.892;2023-11-19T01:33:38;99698.00;;;11.00
20103;BMP180;10210;52.284;9.892;2023-11-19T01:36:05;99728.00;;;11.00
20103;BMP180;10210;52.284;9.892;2023-11-19T01:38:31;99708.00;;;11.00
20103;BMP180;10210;52.284;9.892;2023-11-19T01:40:57;99691.00;;;11.10
20103;BMP180;10210;52.284;9.892;2023-11-19T01:43:37;99689.00;;;11.10
20103;BMP180;10210;52.284;9.892;2023-11-19T01:46:05;99694.00;;;11.10
20103;BMP180;10210;52.284;9.892;2023-11-19T01:48:34;99685.00;;;11.10
20103;BMP180;10210;52.284;9.892;2023-11-19T01:51:03;99677.00;;;11.10
20103;BMP180;10210;52.284;9.892;2023-11-19T01:53:30;99679.00;;;11.10
20103;BMP180;10210;52.284;9.892;2023-11-19T01:55:57;99686.00;;;11.10
20103;BMP180;10210;52.284;9.892;2023-11-19T01:58:24;99670.00;;;11.10
20103;BMP180;10210;52.284;9.892;2023-11-19T02:00:50;99680.00;;;11.10
20103;BMP180;10210;52.284;9.892;2023-11-19T02:03:17;99667.00;;;11.10
20103;BMP180;10210;52.284;9.892;2023-11-19T02:05:42;99665.00;;;11.20
20103;BMP180;10210;52.284;9.892;2023-11-19T02:08:08;99663.00;;;11.20
20103;BMP180;10210;52.284;9.892;2023-11-19T02:10:34;99660.00;;;11.20
20103;BMP180;10210;52.284;9.892;2023-11-19T02:13:01;99656.00;;;11.20
20103;BMP180;10210;52.284;9.892;2023-11-19T02:15:28;99658.00;;;11.20
20103;BMP180;10210;52.284;9.892;2023-11-19T02:17:53;99647.00;;;11.20
20103;BMP180;10210;52.284;9.892;2023-11-19T02:20:20;99643.00;;;11.20
20103;BMP180;10210;52.284;9.892;2023-11-19T02:22:49;99638.00;;;11.20
20103;BMP180;10210;52.284;9.892;2023-11-19T02:25:32;99643.00;;;11.20
20103;BMP180;10210;52.284;9.892;2023-11-19T02:28:00;99638.00;;;11.20
20103;BMP180;10210;52.284;9.892;2023-11-19T02:30:26;99628.00;;;11.20
20103;BMP180;10210;52.284;9.892;2023-11-19T02:32:57;99622.00;;;11.20
20103;BMP180;10210;52.284;9.892;2023-11-19T02:35:25;99639.00;;;11.20
20103;BMP180;10210;52.284;9.892;2023-11-19T02:37:51;99613.00;;;11.30
20103;BMP180;10210;52.284;9.892;2023-11-19T02:40:17;99612.00;;;11.30
20103;BMP180;10210;52.284;9.892;2023-11-19T02:42:43;99622.00;;;11.30
20103;BMP180;10210;52.284;9.892;2023-11-19T02:45:09;99605.00;;;11.30
20103;BMP180;10210;52.284;9.892;2023-11-19T02:47:41;99606.00;;;11.30
20103;BMP180;10210;52.284;9.892;2023-11-19T02:50:11;99613.00;;;11.30
20103;BMP180;10210;52.284;9.892;2023-11-19T02:52:43;99602.00;;;11.40
20103;BMP180;10210;52.284;9.892;2023-11-19T02:55:10;99593.00;;;11.40
20103;BMP180;10210;52.284;9.892;2023-11-19T02:57:39;99585.00;;;11.40
20103;BMP180;10210;52.284;9.892;2023-11-19T03:00:22;99574.00;;;11.50
20103;BMP180;10210;52.284;9.892;2023-11-19T03:02:58;99575.00;;;11.50
20103;BMP180;10210;52.284;9.892;2023-11-19T03:05:42;99567.00;;;11.50
20103;BMP180;10210;52.284;9.892;2023-11-19T03:08:10;99579.00;;;11.60
20103;BMP180;10210;52.284;9.892;2023-11-19T03:10:35;99574.00;;;11.60
20103;BMP180;10210;52.284;9.892;2023-11-19T03:13:02;99566.00;;;11.60
20103;BMP180;10210;52.284;9.892;2023-11-19T03:15:27;99556.00;;;11.70
20103;BMP180;10210;52.284;9.892;2023-11-19T03:17:53;99549.00;;;11.70
20103;BMP180;10210;52.284;9.892;2023-11-19T03:20:19;99533.00;;;11.70
20103;BMP180;10210;52.284;9.892;2023-11-19T03:22:46;99538.00;;;11.80
20103;BMP180;10210;52.284;9.892;2023-11-19T03:25:12;99543.00;;;11.80
20103;BMP180;10210;52.284;9.892;2023-11-19T03:27:39;99533.00;;;11.80
20103;BMP180;10210;52.284;9.892;2023-11-19T03:30:11;99552.00;;;11.90
20103;BMP180;10210;52.284;9.892;2023-11-19T03:32:37;99548.00;;;11.90
20103;BMP180;10210;52.284;9.892;2023-11-19T03:35:05;99539.00;;;12.00
20103;BMP180;10210;52.284;9.892;2023-11-19T03:37:33;99552.00;;;12.00
20103;BMP180;10210;52.284;9.892;2023-11-19T03:39:59;99533.00;;;12.00
20103;BMP180;10210;52.284;9.892;2023-11-19T03:42:26;99531.00;;;12.00
20103;BMP180;10210;52.284;9.892;2023-11-19T03:44:53;99537.00;;;12.10
20103;BMP180;10210;52.284;9.892;2023-11-19T03:47:20;99539.00;;;12.10
20103;BMP180;10210;52.284;9.892;2023-11-19T03:49:49;99539.00;;;12.10
20103;BMP180;10210;52.284;9.892;2023-11-19T03:52:16;99536.00;;;12.20
20103;BMP180;10210;52.284;9.892;2023-11-19T03:54:42;99543.00;;;12.20
20103;BMP180;10210;52.284;9.892;2023-11-19T03:57:08;99522.00;;;12.20
20103;BMP180;10210;52.284;9.892;2023-11-19T03:59:36;99520.00;;;12.20
20103;BMP180;10210;52.284;9.892;2023-11-19T04:02:02;99507.00;;;12.30
20103;BMP180;10210;52.284;9.892;2023-11-19T04:04:28;99502.00;;;12.30
20103;BMP180;10210;52.284;9.892;2023-11-19T04:06:57;99504.00;;;12.30
20103;BMP180;10210;52.284;9.892;2023-11-19T04:09:24;99507.00;;;12.40
20103;BMP180;10210;52.284;9.892;2023-11-19T04:11:50;99507.00;;;12.40
20103;BMP180;10210;52.284;9.892;2023-11-19T04:14:15;99497.00;;;12.40
20103;BMP180;10210;52.284;9.892;2023-11-19T04:16:44;99487.00;;;12.40
20103;BMP180;10210;52.284;9.892;2023-11-19T04:19:11;99497.00;;;12.50
20103;BMP180;10210;52.284;9.892;2023-11-19T04:21:39;99510.00;;;12.50
20103;BMP180;10210;52.284;9.892;2023-11-19T04:24:06;99503.00;;;12.50
20103;BMP180;10210;52.284;9.892;2023-11-19T04:26:32;99503.00;;;12.50
20103;BMP180;10210;52.284;9.892;2023-11-19T04:28:58;99506.00;;;12.60
20103;BMP180;10210;52.284;9.892;2023-11-19T04:31:31;99509.00;;;12.60
20103;BMP180;10210;52.284;9.892;2023-11-19T04:33:57;99513.00;;;12.60
20103;BMP180;10210;52.284;9.892;2023-11-19T04:36:25;99511.00;;;12.70
20103;BMP180;10210;52.284;9.892;2023-11-19T04:38:51;99504.00;;;12.70
20103;BMP180;10210;52.284;9.892;2023-11-19T04:41:17;99514.00;;;12.70
20103;BMP180;10210;52.284;9.892;2023-11-19T04:43:43;99511.00;;;12.70
20103;BMP180;10210;52.284;9.892;2023-11-19T04:46:10;99509.00;;;12.80
20103;BMP180;10210;52.284;9.892;2023-11-19T04:48:35;99495.00;;;12.80
20103;BMP180;10210;52.284;9.892;2023-11-19T04:51:01;99505.00;;;12.90
20103;BMP180;10210;52.284;9.892;2023-11-19T04:53:26;99514.00;;;12.90
20103;BMP180;10210;52.284;9.892;2023-11-19T04:55:52;99509.00;;;12.90
20103;BMP180;10210;52.284;9.892;2023-11-19T04:58:18;99506.00;;;13.00
20103;BMP180;10210;52.284;9.892;2023-11-19T05:00:44;99515.00;;;13.00
20103;BMP180;10210;52.284;9.892;2023-11-19T05:03:10;99522.00;;;13.00
20103;BMP180;10210;52.284;9.892;2023-11-19T05:05:36;99516.00;;;13.10
20103;BMP180;10210;52.284;9.892;2023-11-19T05:08:02;99513.00;;;13.10
20103;BMP180;10210;52.284;9.892;2023-11-19T05:10:28;99502.00;;;13.10
20103;BMP180;10210;52.284;9.892;2023-11-19T05:12:53;99498.00;;;13.20
20103;BMP180;10210;52.284;9.892;2023-11-19T05:15:22;99506.00;;;13.20
20103;BMP180;10210;52.284;9.892;2023-11-19T05:17:47;99497.00;;;13.20
20103;BMP180;10210;52.284;9.892;2023-11-19T05:20:13;99483.00;;;13.20
20103;BMP180;10210;52.284;9.892;2023-11-19T05:22:42;99478.00;;;13.20
20103;BMP180;10210;52.284;9.892;2023-11-19T05:25:08;99472.00;;;13.20
20103;BMP180;10210;52.284;9.892;2023-11-19T05:27:36;99457.00;;;13.20
20103;BMP180;10210;52.284;9.892;2023-11-19T05:30:06;99459.00;;;13.30
20103;BMP180;10210;52.284;9.892;2023-11-19T05:32:36;99457.00;;;13.20
20103;BMP180;10210;52.284;9.892;2023-11-19T05:35:02;99457.00;;;13.30
20103;BMP180;10210;52.284;9.892;2023-11-19T05:37:27;99470.00;;;13.30
20103;BMP180;10210;52.284;9.892;2023-11-19T05:39:53;99466.00;;;13.30
20103;BMP180;10210;52.284;9.892;2023-11-19T05:42:19;99468.00;;;13.30
20103;BMP180;10210;52.284;9.892;2023-11-19T05:44:44;99468.00;;;13.30
20103;BMP180;10210;52.284;9.892;2023-11-19T05:47:10;99486.00;;;13.30
20103;BMP180;10210;52.284;9.892;2023-11-19T05:49:36;99478.00;;;13.40
20103;BMP180;10210;52.284;9.892;2023-11-19T05:52:01;99482.00;;;13.40
20103;BMP180;10210;52.284;9.892;2023-11-19T05:54:29;99468.00;;;13.40
20103;BMP180;10210;52.284;9.892;2023-11-19T05:56:55;99468.00;;;13.40
20103;BMP180;10210;52.284;9.892;2023-11-19T05:59:20;99476.00;;;13.50
20103;BMP180;10210;52.284;9.892;2023-11-19T06:01:48;99471.00;;;13.50
20103;BMP180;10210;52.284;9.892;2023-11-19T06:04:14;99461.00;;;13.50
20103;BMP180;10210;52.284;9.892;2023-11-19T06:06:39;99467.00;;;13.50
20103;BMP180;10210;52.284;9.892;2023-11-19T06:09:06;99466.00;;;13.60
20103;BMP180;10210;52.284;9.892;2023-11-19T06:11:33;99468.00;;;13.60
20103;BMP180;10210;52.284;9.892;2023-11-19T06:14:00;99468.00;;;13.60
20103;BMP180;10210;52.284;9.892;2023-11-19T06:16:26;99470.00;;;13.60
20103;BMP180;10210;52.284;9.892;2023-11-19T06:18:51;99459.00;;;13.60
20103;BMP180;10210;52.284;9.892;2023-11-19T06:21:18;99465.00;;;13.60
20103;BMP180;10210;52.284;9.892;2023-11-19T06:23:44;99461.00;;;13.60
20103;BMP180;10210;52.284;9.892;2023-11-19T06:26:10;99475.00;;;13.70
20103;BMP180;10210;52.284;9.892;2023-11-19T06:28:36;99465.00;;;13.70
20103;BMP180;10210;52.284;9.892;2023-11-19T06:31:03;99475.00;;;13.70
20103;BMP180;10210;52.284;9.892;2023-11-19T06:33:29;99475.00;;;13.70
20103;BMP180;10210;52.284;9.892;2023-11-19T06:35:55;99489.00;;;13.80
20103;BMP180;10210;52.284;9.892;2023-11-19T06:38:20;99485.00;;;13.80
20103;BMP180;10210;52.284;9.892;2023-11-19T06:40:46;99483.00;;;13.90
20103;BMP180;10210;52.284;9.892;2023-11-19T06:43:12;99494.00;;;13.90
20103;BMP180;10210;52.284;9.892;2023-11-19T06:45:38;99496.00;;;14.00
20103;BMP180;10210;52.284;9.892;2023-11-19T06:48:04;99493.00;;;14.00
20103;BMP180;10210;52.284;9.892;2023-11-19T06:50:31;99501.00;;;14.00
20103;BMP180;10210;52.284;9.892;2023-11-19T06:52:56;99496.00;;;14.10
20103;BMP180;10210;52.284;9.892;2023-11-19T06:55:22;99499.00;;;14.10
20103;BMP180;10210;52.284;9.892;2023-11-19T06:57:48;99502.00;;;14.20
20103;BMP180;10210;52.284;9.892;2023-11-19T07:00:14;99502.00;;;14.20
20103;BMP180;10210;52.284;9.892;2023-11-19T07:02:40;99514.00;;;14.30
20103;BMP180;10210;52.284;9.892;2023-11-19T07:05:06;99505.00;;;14.30
20103;BMP180;10210;52.284;9.892;2023-11-19T07:07:33;99504.00;;;14.30
20103;BMP180;10210;52.284;9.892;2023-11-19T07:10:00;99517.00;;;14.40
20103;BMP180;10210;52.284;9.892;2023-11-19T07:12:27;99517.00;;;14.40
20103;BMP180;10210;52.284;9.892;2023-11-19T07:14:53;99525.00;;;14.40
20103;BMP180;10210;52.284;9.892;2023-11-19T07:17:20;99535.00;;;14.40
20103;BMP180;10210;52.284;9.892;2023-11-19T07:19:50;99545.00;;;14.50
20103;BMP180;10210;52.284;9.892;2023-11-19T07:22:15;99542.00;;;14.50
20103;BMP180;10210;52.284;9.892;2023-11-19T07:24:41;99541.00;;;14.50
20103;BMP180;10210;52.284;9.892;2023-11-19T07:27:07;99534.00;;;14.50
20103;BMP180;10210;52.284;9.892;2023-11-19T07:29:35;99545.00;;;14.60
20103;BMP180;10210;52.284;9.892;2023-11-19T07:32:01;99534.00;;;14.60
20103;BMP180;10210;52.284;9.892;2023-11-19T07:34:27;99537.00;;;14.50
20103;BMP180;10210;52.284;9.892;2023-11-19T07:36:54;99546.00;;;14.60
20103;BMP180;10210;52.284;9.892;2023-11-19T07:39:22;99553.00;;;14.50
20103;BMP180;10210;52.284;9.892;2023-11-19T07:41:48;99551.00;;;14.50
20103;BMP180;10210;52.284;9.892;2023-11-19T07:44:14;99553.00;;;14.50
20103;BMP180;10210;52.284;9.892;2023-11-19T07:46:40;99552.00;;;14.60
20103;BMP180;10210;52.284;9.892;2023-11-19T07:49:07;99563.00;;;14.60
20103;BMP180;10210;52.284;9.892;2023-11-19T07:51:33;99562.00;;;14.60
20103;BMP180;10210;52.284;9.892;2023-11-19T07:53:59;99555.00;;;14.60
20103;BMP180;10210;52.284;9.892;2023-11-19T07:56:24;99563.00;;;14.70
20103;BMP180;10210;52.284;9.892;2023-11-19T07:58:50;99560.00;;;14.70
20103;BMP180;10210;52.284;9.892;2023-11-19T08:01:16;99549.00;;;14.70
20103;BMP180;10210;52.284;9.892;2023-11-19T08:03:41;99552.00;;;14.70
20103;BMP180;10210;52.284;9.892;2023-11-19T08:06:07;99555.00;;;14.70
20103;BMP180;10210;52.284;9.892;2023-11-19T08:08:33;99569.00;;;14.70
20103;BMP180;10210;52.284;9.892;2023-11-19T08:11:01;99568.00;;;14.70
20103;BMP180;10210;52.284;9.892;2023-11-19T08:13:26;99567.00;;;14.70
20103;BMP180;10210;52.284;9.892;2023-11-19T08:15:52;99560.00;;;14.70
20103;BMP180;10210;52.284;9.892;2023-11-19T08:18:18;99562.00;;;14.70
20103;BMP180;10210;52.284;9.892;2023-11-19T08:20:44;99557.00;;;14.70
20103;BMP180;10210;52.284;9.892;2023-11-19T08:23:11;99561.00;;;14.70
20103;BMP180;10210;52.284;9.892;2023-11-19T08:25:36;99562.00;;;14.70
20103;BMP180;10210;52.284;9.892;2023-11-19T08:28:02;99572.00;;;14.70
20103;BMP180;10210;52.284;9.892;2023-11-19T08:30:29;99585.00;;;14.70
20103;BMP180;10210;52.284;9.892;2023-11-19T08:32:55;99584.00;;;14.70
20103;BMP180;10210;52.284;9.892;2023-11-19T08:35:21;99581.00;;;14.70
20103;BMP180;10210;52.284;9.892;2023-11-19T08:37:47;99581.00;;;14.70
20103;BMP180;10210;52.284;9.892;2023-11-19T08:40:13;99582.00;;;14.70
20103;BMP180;10210;52.284;9.892;2023-11-19T08:42:40;99581.00;;;14.80
20103;BMP180;10210;52.284;9.892;2023-11-19T08:45:07;99577.00;;;14.80
20103;BMP180;10210;52.284;9.892;2023-11-19T08:47:36;99577.00;;;14.80
20103;BMP180;10210;52.284;9.892;2023-11-19T08:50:02;99578.00;;;14.80
20103;BMP180;10210;52.284;9.892;2023-11-19T08:52:30;99588.00;;;14.80
20103;BMP180;10210;52.284;9.892;2023-11-19T08:54:56;99586.00;;;14.80
20103;BMP180;10210;52.284;9.892;2023-11-19T08:57:21;99575.00;;;14.80
20103;BMP180;10210;52.284;9.892;2023-11-19T08:59:47;99592.00;;;14.90
20103;BMP180;10210;52.284;9.892;2023-11-19T09:02:13;99586.00;;;14.90
20103;BMP180;10210;52.284;9.892;2023-11-19T09:04:38;99586.00;;;14.90
20103;BMP180;10210;52.284;9.892;2023-11-19T09:07:04;99596.00;;;14.90
20103;BMP180;10210;52.284;9.892;2023-11-19T09:09:30;99594.00;;;14.90
20103;BMP180;10210;52.284;9.892;2023-11-19T09:11:56;99590.00;;;15.00
20103;BMP180;10210;52.284;9.892;2023-11-19T09:14:21;99601.00;;;15.00
20103;BMP180;10210;52.284;9.892;2023-11-19T09:16:52;99619.00;;;15.00
20103;BMP180;10210;52.284;9.892;2023-11-19T09:19:18;99614.00;;;15.00
20103;BMP180;10210;52.284;9.892;2023-11-19T09:21:44;99609.00;;;15.00
20103;BMP180;10210;52.284;9.892;2023-11-19T09:24:10;99612.00;;;15.10
20103;BMP180;10210;52.284;9.892;2023-11-19T09:26:36;99611.00;;;15.10
20103;BMP180;10210;52.284;9.892;2023-11-19T09:29:02;99617.00;;;15.10
20103;BMP180;10210;52.284;9.892;2023-11-19T09:31:28;99623.00;;;15.10
20103;BMP180;10210;52.284;9.892;2023-11-19T09:33:53;99626.00;;;15.10
20103;BMP180;10210;52.284;9.892;2023-11-19T09:36:19;99618.00;;;15.10
20103;BMP180;10210;52.284;9.892;2023-11-19T09:38:45;99612.00;;;15.20
20103;BMP180;10210;52.284;9.892;2023-11-19T09:41:11;99624.00;;;15.20
20103;BMP180;10210;52.284;9.892;2023-11-19T09:43:42;99617.00;;;15.30
20103;BMP180;10210;52.284;9.892;2023-11-19T09:46:10;99618.00;;;15.40
20103;BMP180;10210;52.284;9.892;2023-11-19T09:48:39;99618.00;;;15.60
20103;BMP180;10210;52.284;9.892;2023-11-19T09:51:10;99618.00;;;15.60
20103;BMP180;10210;52.284;9.892;2023-11-19T09:53:37;99615.00;;;15.70
20103;BMP180;10210;52.284;9.892;2023-11-19T09:56:06;99619.00;;;15.80
20103;BMP180;10210;52.284;9.892;2023-11-19T09:58:33;99612.00;;;15.80
20103;BMP180;10210;52.284;9.892;2023-11-19T10:01:01;99608.00;;;15.80
20103;BMP180;10210;52.284;9.892;2023-11-19T10:03:36;99613.00;;;15.90
20103;BMP180;10210;52.284;9.892;2023-11-19T10:06:08;99607.00;;;15.90
20103;BMP180;10210;52.284;9.892;2023-11-19T10:08:37;99602.00;;;15.90
20103;BMP180;10210;52.284;9.892;2023-11-19T10:11:06;99614.00;;;15.90
20103;BMP180;10210;52.284;9.892;2023-11-19T10:13:37;99607.00;;;15.80
20103;BMP180;10210;52.284;9.892;2023-11-19T10:16:17;99607.00;;;15.80
20103;BMP180;10210;52.284;9.892;2023-11-19T10:18:46;99612.00;;;15.80
20103;BMP180;10210;52.284;9.892;2023-11-19T10:21:13;99613.00;;;15.80
20103;BMP180;10210;52.284;9.892;2023-11-19T10:23:59;99603.00;;;15.80
20103;BMP180;10210;52.284;9.892;2023-11-19T10:26:28;99615.00;;;15.80
20103;BMP180;10210;52.284;9.892;2023-11-19T10:28:56;99620.00;;;15.80
20103;BMP180;10210;52.284;9.892;2023-11-19T10:31:21;99614.00;;;15.90
20103;BMP180;10210;52.284;9.892;2023-11-19T10:33:51;99613.00;;;15.80
20103;BMP180;10210;52.284;9.892;2023-11-19T10:36:17;99618.00;;;15.80
20103;BMP180;10210;52.284;9.892;2023-11-19T10:39:01;99613.00;;;15.70
20103;BMP180;10210;52.284;9.892;2023-11-19T10:41:32;99620.00;;;15.80
20103;BMP180;10210;52.284;9.892;2023-11-19T10:43:59;99615.00;;;15.80
20103;BMP180;10210;52.284;9.892;2023-11-19T10:46:40;99624.00;;;15.80
20103;BMP180;10210;52.284;9.892;2023-11-19T10:49:10;99625.00;;;15.80
20103;BMP180;10210;52.284;9.892;2023-11-19T10:51:43;99621.00;;;15.90
20103;BMP180;10210;52.284;9.892;2023-11-19T10:54:13;99620.00;;;16.00
20103;BMP180;10210;52.284;9.892;2023-11-19T10:56:44;99631.00;;;16.00
20103;BMP180;10210;52.284;9.892;2023-11-19T10:59:11;99623.00;;;16.00
20103;BMP180;10210;52.284;9.892;2023-11-19T11:01:45;99627.00;;;16.00
20103;BMP180;10210;52.284;9.892;2023-11-19T11:04:23;99622.00;;;16.00
20103;BMP180;10210;52.284;9.892;2023-11-19T11:06:54;99623.00;;;16.00
20103;BMP180;10210;52.284;9.892;2023-11-19T11:09:20;99617.00;;;16.00
20103;BMP180;10210;52.284;9.892;2023-11-19T11:11:51;99625.00;;;16.10
20103;BMP180;10210;52.284;9.892;2023-11-19T11:14:20;99622.00;;;16.10
20103;BMP180;10210;52.284;9.892;2023-11-19T11:16:48;99624.00;;;16.10
20103;BMP180;10210;52.284;9.892;2023-11-19T11:19:16;99622.00;;;16.20
20103;BMP180;10210;52.284;9.892;2023-11-19T11:21:50;99614.00;;;16.20
20103;BMP180;10210;52.284;9.892;2023-11-19T11:30:11;99608.00;;;16.20
20103;BMP180;10210;52.284;9.892;2023-11-19T11:32:51;99633.00;;;16.30
20103;BMP180;10210;52.284;9.892;2023-11-19T11:35:59;99628.00;;;16.20
20103;BMP180;10210;52.284;9.892;2023-11-19T11:38:37;99616.00;;;16.40
20103;BMP180;10210;52.284;9.892;2023-11-19T11:41:24;99616.00;;;16.40
20103;BMP180;10210;52.284;9.892;2023-11-19T11:43:55;99617.00;;;16.40
20103;BMP180;10210;52.284;9.892;2023-11-19T11:49:08;99608.00;;;16.50
20103;BMP180;10210;52.284;9.892;2023-11-19T11:54:28;99614.00;;;16.50
20103;BMP180;10210;52.284;9.892;2023-11-19T11:57:13;99619.00;;;16.50
20103;BMP180;10210;52.284;9.892;2023-11-19T12:02:17;99616.00;;;16.50
20103;BMP180;10210;52.284;9.892;2023-11-19T12:04:50;99630.00;;;16.60
20103;BMP180;10210;52.284;9.892;2023-11-19T12:07:20;99630.00;;;16.60
20103;BMP180;10210;52.284;9.892;2023-11-19T12:09:52;99621.00;;;16.60
20103;BMP180;10210;52.284;9.892;2023-11-19T12:12:27;99616.00;;;16.70
20103;BMP180;10210;52.284;9.892;2023-11-19T12:14:59;99613.00;;;16.70
20103;BMP180;10210;52.284;9.892;2023-11-19T12:17:36;99608.00;;;16.70
20103;BMP180;10210;52.284;9.892;2023-11-19T12:20:06;99619.00;;;16.70
20103;BMP180;10210;52.284;9.892;2023-11-19T12:22:37;99613.00;;;16.80
20103;BMP180;10210;52.284;9.892;2023-11-19T12:25:06;99614.00;;;16.90
20103;BMP180;10210;52.284;9.892;2023-11-19T12:27:33;99610.00;;;16.90
20103;BMP180;10210;52.284;9.892;2023-11-19T12:30:03;99608.00;;;17.00
20103;BMP180;10210;52.284;9.892;2023-11-19T12:32:44;99621.00;;;17.00
20103;BMP180;10210;52.284;9.892;2023-11-19T12:35:11;99617.00;;;17.00
20103;BMP180;10210;52.284;9.892;2023-11-19T12:37:45;99600.00;;;17.10
20103;BMP180;10210;52.284;9.892;2023-11-19T12:42:38;99611.00;;;17.10
20103;BMP180;10210;52.284;9.892;2023-11-19T12:45:05;99607.00;;;17.00
20103;BMP180;10210;52.284;9.892;2023-11-19T12:47:31;99620.00;;;17.00
20103;BMP180;10210;52.284;9.892;2023-11-19T12:49:57;99610.00;;;17.00
20103;BMP180;10210;52.284;9.892;2023-11-19T12:52:23;99611.00;;;17.00
20103;BMP180;10210;52.284;9.892;2023-11-19T12:54:50;99616.00;;;17.00
20103;BMP180;10210;52.284;9.892;2023-11-19T12:57:16;99611.00;;;17.00
20103;BMP180;10210;52.284;9.892;2023-11-19T12:59:55;99621.00;;;17.00
20103;BMP180;10210;52.284;9.892;2023-11-19T13:02:22;99619.00;;;17.00
20103;BMP180;10210;52.284;9.892;2023-11-19T13:04:48;99610.00;;;16.90
20103;BMP180;10210;52.284;9.892;2023-11-19T13:07:21;99607.00;;;16.90
20103;BMP180;10210;52.284;9.892;2023-11-19T13:09:47;99610.00;;;16.90
20103;BMP180;10210;52.284;9.892;2023-11-19T13:12:15;99615.00;;;16.90
20103;BMP180;10210;52.284;9.892;2023-11-19T13:14:41;99616.00;;;16.80
20103;BMP180;10210;52.284;9.892;2023-11-19T13:17:08;99614.00;;;16.80
20103;BMP180;10210;52.284;9.892;2023-11-19T13:19:34;99606.00;;;16.80
20103;BMP180;10210;52.284;9.892;2023-11-19T13:22:01;99606.00;;;16.70
20103;BMP180;10210;52.284;9.892;2023-11-19T13:24:26;99617.00;;;16.70
20103;BMP180;10210;52.284;9.892;2023-11-19T13:26:52;99610.00;;;16.70
20103;BMP180;10210;52.284;9.892;2023-11-19T13:29:17;99616.00;;;16.70
20103;BMP180;10210;52.284;9.892;2023-11-19T13:31:43;99600.00;;;16.70
20103;BMP180;10210;52.284;9.892;2023-11-19T13:34:09;99604.00;;;16.70
20103;BMP180;10210;52.284;9.892;2023-11-19T13:36:34;99589.00;;;16.70
20103;BMP180;10210;52.284;9.892;2023-11-19T13:39:03;99593.00;;;16.60
20103;BMP180;10210;52.284;9.892;2023-11-19T13:41:30;99593.00;;;16.60
20103;BMP180;10210;52.284;9.892;2023-11-19T13:43:56;99598.00;;;16.60
20103;BMP180;10210;52.284;9.892;2023-11-19T13:46:22;99601.00;;;16.60
20103;BMP180;10210;52.284;9.892;2023-11-19T13:48:47;99600.00;;;16.60
20103;BMP180;10210;52.284;9.892;2023-11-19T13:51:15;99594.00;;;16.60
20103;BMP180;10210;52.284;9.892;2023-11-19T13:53:41;99594.00;;;16.60
20103;BMP180;10210;52.284;9.892;2023-11-19T13:56:07;99596.00;;;16.60
20103;BMP180;10210;52.284;9.892;2023-11-19T13:58:33;99591.00;;;16.60
20103;BMP180;10210;52.284;9.892;2023-11-19T14:00:59;99592.00;;;16.60
20103;BMP180;10210;52.284;9.892;2023-11-19T14:03:24;99594.00;;;16.60
20103;BMP180;10210;52.284;9.892;2023-11-19T14:05:50;99595.00;;;16.50
20103;BMP180;10210;52.284;9.892;2023-11-19T14:08:17;99602.00;;;16.50
20103;BMP180;10210;52.284;9.892;2023-11-19T14:10:43;99593.00;;;16.50
20103;BMP180;10210;52.284;9.892;2023-11-19T14:13:09;99588.00;;;16.50
20103;BMP180;10210;52.284;9.892;2023-11-19T14:15:35;99584.00;;;16.50
20103;BMP180;10210;52.284;9.892;2023-11-19T14:18:01;99579.00;;;16.50
20103;BMP180;10210;52.284;9.892;2023-11-19T14:20:28;99585.00;;;16.50
20103;BMP180;10210;52.284;9.892;2023-11-19T14:22:54;99586.00;;;16.50
20103;BMP180;10210;52.284;9.892;2023-11-19T14:25:20;99589.00;;;16.50
20103;BMP180;10210;52.284;9.892;2023-11-19T14:27:46;99591.00;;;16.50